Time;durP1;ratioP1;P1;durP2;ratioP2;P2;SDS_P1;SDS_P2;PMS_P1;PMS_P2;Temp;Humidity;BMP_temperature;BMP_pressure;BME280_temperature;BME280_humidity;BME280_pressure;Samples;Min_cycle;Max_cycle;Signal;HPM_P1;HPM_P2
2022/03/29 00:02:36;;;;;;;9.43;5.05;;;;;;;19.53;33.90;101565.19;16135178;19;129853;-48
2022/03/29 00:07:58;;;;;;;9.27;4.70;;;;;;;19.52;34.38;101557.09;16128041;19;130170;-47
2022/03/29 00:13:20;;;;;;;10.50;4.40;;;;;;;19.51;34.19;101552.63;16136063;19;129361;-45
2022/03/29 00:18:42;;;;;;;9.30;4.50;;;;;;;19.49;33.94;101549.25;16133582;19;130129;-51
2022/03/29 00:24:04;;;;;;;8.93;4.55;;;;;;;19.47;34.34;101538.41;16132334;19;129233;-45
2022/03/29 00:29:26;;;;;;;6.25;3.92;;;;;;;19.45;34.40;101531.38;16133968;19;130004;-51
2022/03/29 00:34:48;;;;;;;11.30;4.63;;;;;;;19.44;34.36;101526.94;16135462;19;130551;-46
2022/03/29 00:40:11;;;;;;;10.05;4.63;;;;;;;19.43;33.93;101520.53;16134273;19;129417;-48
2022/03/29 00:45:33;;;;;;;9.50;4.50;;;;;;;19.42;34.39;101518.00;16127271;19;130146;-51
2022/03/29 00:50:56;;;;;;;9.48;4.80;;;;;;;19.41;34.38;101499.66;16128509;19;129290;-45
2022/03/29 00:56:19;;;;;;;10.32;4.95;;;;;;;19.40;34.31;101500.72;16136677;19;130611;-47
2022/03/29 01:01:41;;;;;;;6.78;3.80;;;;;;;19.37;34.00;101483.47;16144891;19;130919;-51
2022/03/29 01:07:04;;;;;;;8.88;4.78;;;;;;;19.36;34.18;101483.72;16148732;19;130446;-51
2022/03/29 01:12:28;;;;;;;9.77;4.65;;;;;;;19.34;34.25;101470.06;16143745;19;129539;-45
2022/03/29 01:17:50;;;;;;;10.13;4.10;;;;;;;19.33;34.02;101467.53;16146089;19;129389;-47
2022/03/29 01:23:12;;;;;;;9.77;4.53;;;;;;;19.32;34.13;101454.75;16147339;19;129494;-50
2022/03/29 01:28:34;;;;;;;8.80;4.53;;;;;;;19.30;33.82;101445.81;16147964;19;129789;-51
2022/03/29 01:33:56;;;;;;;11.73;4.57;;;;;;;19.28;33.67;101443.28;16147946;19;130017;-44
2022/03/29 01:39:18;;;;;;;9.10;4.70;;;;;;;19.27;33.62;101447.16;16142297;19;130765;-46
2022/03/29 01:44:40;;;;;;;10.30;4.60;;;;;;;19.26;33.61;101451.00;16145114;19;129138;-44
2022/03/29 01:50:02;;;;;;;12.95;4.72;;;;;;;19.24;33.81;101442.06;16145224;19;130062;-46
2022/03/29 01:55:25;;;;;;;9.13;4.32;;;;;;;19.22;33.54;101434.00;16147204;19;129919;-45
2022/03/29 02:00:47;;;;;;;7.15;3.90;;;;;;;19.22;34.05;101422.03;16143657;19;128899;-50
2022/03/29 02:06:09;;;;;;;8.32;4.20;;;;;;;19.21;33.69;101412.03;16144849;19;129106;-44
2022/03/29 02:11:31;;;;;;;7.53;4.25;;;;;;;19.19;33.74;101405.88;16140464;19;130770;-49
2022/03/29 02:16:53;;;;;;;7.55;4.18;;;;;;;19.19;33.86;101401.16;16144154;19;129006;-48
2022/03/29 02:22:15;;;;;;;8.75;3.92;;;;;;;19.17;33.64;101399.72;16144195;19;129125;-49
2022/03/29 02:27:41;;;;;;;9.20;4.47;;;;;;;19.16;33.97;101392.47;16144683;19;129503;-49
2022/03/29 02:33:04;;;;;;;7.38;4.30;;;;;;;19.16;33.94;101384.16;16139197;19;130263;-45
2022/03/29 02:38:26;;;;;;;9.30;4.72;;;;;;;19.13;33.59;101384.63;16142635;19;129258;-45
2022/03/29 02:43:48;;;;;;;10.30;4.30;;;;;;;19.13;33.51;101373.53;16138718;19;129261;-48
2022/03/29 02:49:10;;;;;;;10.75;4.63;;;;;;;19.10;33.56;101372.06;16136847;19;129281;-46
2022/03/29 02:54:32;;;;;;;7.43;4.07;;;;;;;19.10;33.80;101363.75;16138774;19;129480;-48
2022/03/29 02:59:54;;;;;;;6.90;4.15;;;;;;;19.07;33.68;101362.31;16139738;19;129127;-46
2022/03/29 03:05:17;;;;;;;9.00;4.28;;;;;;;19.07;33.64;101361.47;16139636;19;129428;-47
2022/03/29 03:10:39;;;;;;;10.50;4.38;;;;;;;19.05;33.54;101353.38;16137223;19;130402;-47
2022/03/29 03:16:01;;;;;;;9.07;4.32;;;;;;;19.03;33.60;101347.22;16136296;19;132088;-48
2022/03/29 03:21:22;;;;;;;7.63;3.95;;;;;;;19.03;33.65;101352.78;16131138;19;129740;-49
2022/03/29 03:26:44;;;;;;;9.77;4.63;;;;;;;19.02;33.92;101370.50;16138291;19;129472;-45
2022/03/29 03:32:07;;;;;;;9.20;4.18;;;;;;;19.02;33.75;101359.41;16133584;19;130654;-44
2022/03/29 03:37:28;;;;;;;8.60;4.05;;;;;;;19.00;33.45;101347.69;16132025;19;128913;-45
2022/03/29 03:42:50;;;;;;;6.85;3.55;;;;;;;18.99;33.88;101334.91;16136720;19;129589;-46
2022/03/29 03:48:12;;;;;;;7.50;4.10;;;;;;;18.99;33.52;101329.38;16138494;19;129746;-46
2022/03/29 03:53:34;;;;;;;8.55;4.20;;;;;;;19.01;33.77;101329.97;16133637;19;128946;-46
2022/03/29 03:58:56;;;;;;;6.68;3.58;;;;;;;19.17;33.39;101322.03;16136907;19;128973;-46
2022/03/29 04:04:18;;;;;;;7.93;4.32;;;;;;;19.54;33.33;101307.94;16137119;19;130396;-47
2022/03/29 04:09:40;;;;;;;6.88;3.80;;;;;;;20.05;32.77;101307.38;16136234;19;128992;-46
2022/03/29 04:15:03;;;;;;;6.05;3.40;;;;;;;20.52;32.24;101307.19;16133756;19;129453;-49
2022/03/29 04:20:25;;;;;;;7.75;3.65;;;;;;;20.86;31.70;101296.09;16134639;19;129695;-49
2022/03/29 04:25:46;;;;;;;6.28;3.80;;;;;;;21.03;31.67;101293.31;16130912;19;130037;-46
2022/03/29 04:31:08;;;;;;;6.10;3.50;;;;;;;21.06;31.32;101278.06;16139526;19;129578;-50
2022/03/29 04:36:31;;;;;;;7.53;3.85;;;;;;;20.98;31.20;101268.22;16148499;19;129758;-47
2022/03/29 04:41:53;;;;;;;7.30;3.90;;;;;;;20.89;31.42;101272.50;16148124;19;129338;-49
2022/03/29 04:47:28;;;;;;;12.00;4.00;;;;;;;20.78;31.74;101277.06;16144800;19;129752;-47
2022/03/29 04:52:51;;;;;;;5.95;3.58;;;;;;;20.68;31.61;101268.50;16144355;19;129350;-47
2022/03/29 04:58:13;;;;;;;6.68;3.97;;;;;;;20.55;31.51;101251.09;16146578;19;130409;-44
2022/03/29 05:03:34;;;;;;;9.50;3.55;;;;;;;20.43;31.96;101237.25;16148904;19;129158;-50
2022/03/29 05:08:56;;;;;;;7.18;3.72;;;;;;;20.33;32.21;101228.75;16146332;19;130444;-46
2022/03/29 05:14:18;;;;;;;6.32;3.92;;;;;;;20.21;32.29;101201.00;16140632;19;129805;-51
2022/03/29 05:19:40;;;;;;;7.93;4.35;;;;;;;20.13;31.96;101190.31;16145777;19;129308;-49
2022/03/29 05:25:02;;;;;;;9.00;4.53;;;;;;;20.04;32.22;101200.16;16145118;19;129521;-49
2022/03/29 05:30:24;;;;;;;11.43;4.95;;;;;;;19.96;32.04;101207.75;16144634;19;129472;-50
2022/03/29 05:35:46;;;;;;;9.15;4.30;;;;;;;19.90;32.26;101222.66;16141469;19;129502;-50
2022/03/29 05:41:12;;;;;;;6.82;4.60;;;;;;;19.84;32.58;101241.13;16144466;19;129406;-50
2022/03/29 05:52:15;;;;;;;6.47;4.20;;;;;;;19.73;32.73;101238.38;16139148;19;130139;-51
2022/03/29 05:57:37;;;;;;;7.88;3.75;;;;;;;19.66;32.49;101250.50;16142644;19;131323;-51
2022/03/29 06:02:58;;;;;;;10.85;4.20;;;;;;;19.61;32.55;101233.72;16142349;19;129661;-47
2022/03/29 06:08:20;;;;;;;9.25;4.72;;;;;;;19.56;32.99;101233.63;16141505;19;129350;-49
2022/03/29 06:13:42;;;;;;;7.90;4.43;;;;;;;19.52;32.67;101238.81;16133049;19;129609;-47
2022/03/29 06:19:04;;;;;;;6.32;4.65;;;;;;;19.49;33.17;101241.22;16140060;19;129613;-47
2022/03/29 06:24:26;;;;;;;7.30;4.53;;;;;;;19.47;32.75;101232.28;16140829;19;130580;-44
2022/03/29 06:29:48;;;;;;;7.75;4.70;;;;;;;19.45;32.95;101238.09;16136285;19;129609;-46
2022/03/29 06:35:12;;;;;;;8.10;5.03;;;;;;;19.42;32.97;101238.59;16138809;19;129529;-49
2022/03/29 06:40:34;;;;;;;9.13;5.22;;;;;;;19.40;32.76;101234.38;16136801;19;130461;-47
2022/03/29 06:45:56;;;;;;;7.20;4.78;;;;;;;19.38;32.76;101231.84;16138201;19;129649;-44
2022/03/29 06:51:18;;;;;;;10.07;5.72;;;;;;;19.37;32.66;101242.09;16135352;19;130037;-47
2022/03/29 06:56:40;;;;;;;12.15;5.10;;;;;;;19.35;33.06;101233.16;16136046;19;128991;-44
2022/03/29 07:02:02;;;;;;;8.73;5.68;;;;;;;19.34;33.16;101231.47;16138785;19;129257;-44
2022/03/29 07:07:24;;;;;;;8.82;6.00;;;;;;;19.32;32.68;101227.28;16141294;19;129188;-46
2022/03/29 07:12:54;;;;;;;9.68;5.75;;;;;;;19.32;33.08;101235.59;16136102;19;129126;-46
2022/03/29 07:18:16;;;;;;;11.95;5.90;;;;;;;19.30;33.09;101235.84;16138801;19;129849;-46
2022/03/29 07:23:39;;;;;;;8.98;5.93;;;;;;;19.31;32.81;101237.53;16139842;19;129809;-44
2022/03/29 07:29:04;;;;;;;9.60;5.47;;;;;;;19.33;33.13;101238.13;16138653;19;129298;-46
2022/03/29 07:34:26;;;;;;;9.57;6.23;;;;;;;19.36;32.62;101226.53;16133668;19;129453;-46
2022/03/29 07:39:48;;;;;;;8.82;5.63;;;;;;;19.38;32.58;101224.38;16130553;19;131310;-47
2022/03/29 07:45:11;;;;;;;8.55;5.88;;;;;;;19.41;32.94;101227.75;16132867;19;130385;-46
2022/03/29 07:50:34;;;;;;;12.07;6.28;;;;;;;19.43;32.91;101229.19;16137683;19;130647;-46
2022/03/29 07:55:56;;;;;;;8.48;6.10;;;;;;;19.45;32.55;101227.00;16138759;19;129449;-45
2022/03/29 08:01:18;;;;;;;9.70;5.65;;;;;;;19.46;32.91;101225.91;16137151;19;129095;-45
2022/03/29 08:06:40;;;;;;;9.25;5.95;;;;;;;19.45;32.62;101218.69;16134342;19;128967;-45
2022/03/29 08:12:02;;;;;;;8.32;6.43;;;;;;;19.45;32.63;101220.59;16134809;19;129267;-45
2022/03/29 08:17:24;;;;;;;10.02;7.22;;;;;;;19.43;32.39;101211.69;16136339;19;129427;-47
2022/03/29 08:22:46;;;;;;;7.65;6.40;;;;;;;19.40;32.59;101207.47;16133435;19;129778;-44
2022/03/29 08:28:08;;;;;;;9.02;6.20;;;;;;;19.40;32.42;101207.47;16135759;19;129445;-44
2022/03/29 08:33:30;;;;;;;9.32;5.55;;;;;;;19.38;32.87;101207.72;16131813;19;129318;-43
2022/03/29 08:38:52;;;;;;;7.80;5.30;;;;;;;19.38;32.95;101195.78;16136003;19;129816;-43
2022/03/29 08:44:14;;;;;;;9.02;5.78;;;;;;;19.40;32.85;101198.31;16133049;19;129244;-46
2022/03/29 08:49:36;;;;;;;6.75;4.97;;;;;;;19.42;32.46;101210.84;16129826;19;130164;-43
2022/03/29 08:54:58;;;;;;;9.52;6.03;;;;;;;19.42;32.51;101193.38;16128319;19;129282;-44
2022/03/29 09:00:26;;;;;;;7.60;6.03;;;;;;;19.42;32.51;101190.59;16134880;19;129968;-44
2022/03/29 09:06:04;;;;;;;10.75;6.53;;;;;;;19.45;32.78;101190.06;16134240;19;130166;-43
2022/03/29 09:11:39;;;;;;;10.07;6.70;;;;;;;19.46;32.56;101189.84;16132078;19;129524;-45
2022/03/29 09:17:30;;;;;;;9.47;6.53;;;;;;;19.49;32.59;101182.97;16135366;19;130378;-42
2022/03/29 09:22:55;;;;;;;9.90;6.07;;;;;;;19.58;33.19;101178.69;16148520;19;129571;-43
2022/03/29 09:28:20;;;;;;;12.50;6.03;;;;;;;19.74;33.32;101179.00;16139459;19;129749;-43
2022/03/29 09:33:43;;;;;;;8.88;5.82;;;;;;;19.82;33.09;101178.59;16152319;19;131054;-43
2022/03/29 09:39:05;;;;;;;10.68;6.57;;;;;;;19.88;32.64;101169.28;16197111;19;128772;-43
2022/03/29 09:44:36;;;;;;;11.25;6.03;;;;;;;19.94;32.63;101159.94;16192241;19;129626;-50
2022/03/29 09:50:05;;;;;;;11.25;6.57;;;;;;;19.98;32.80;101163.91;16191757;19;129174;-45
2022/03/29 09:55:27;;;;;;;7.97;5.38;;;;;;;20.01;32.85;101157.03;16187551;19;130615;-42
2022/03/29 10:00:49;;;;;;;10.07;6.63;;;;;;;20.01;32.58;101161.78;16191063;19;129108;-42
2022/03/29 10:06:11;;;;;;;9.25;6.55;;;;;;;20.04;32.65;101155.72;16194351;19;129099;-47
2022/03/29 10:11:34;;;;;;;9.52;6.40;;;;;;;20.05;32.40;101144.34;16192356;19;129112;-43
2022/03/29 10:16:56;;;;;;;8.30;6.38;;;;;;;20.07;32.49;101130.22;16181519;19;129287;-44
2022/03/29 10:22:18;;;;;;;10.57;6.55;;;;;;;20.08;32.49;101131.91;16144267;19;130311;-44
2022/03/29 10:27:40;;;;;;;8.43;5.90;;;;;;;20.10;32.59;101129.72;16140368;19;129918;-44
2022/03/29 10:33:34;;;;;;;7.05;5.50;;;;;;;20.10;32.20;101124.16;16141944;19;129417;-46
2022/03/29 10:38:57;;;;;;;15.18;6.05;;;;;;;20.14;32.19;101133.69;16141858;19;129660;-45
2022/03/29 10:44:20;;;;;;;7.97;5.80;;;;;;;20.18;32.37;101118.22;16141131;19;129289;-46
2022/03/29 10:49:48;;;;;;;9.13;6.05;;;;;;;20.22;32.42;101108.25;16144003;19;129686;-44
2022/03/29 10:55:28;;;;;;;9.15;6.50;;;;;;;20.28;32.03;101096.13;16134327;19;130082;-44
2022/03/29 11:00:50;;;;;;;8.57;6.63;;;;;;;20.29;31.94;101081.16;16139665;19;129305;-46
2022/03/29 11:06:17;;;;;;;11.00;7.95;;;;;;;20.27;32.32;101076.94;16135326;19;129886;-44
2022/03/29 11:11:46;;;;;;;13.15;9.00;;;;;;;20.25;31.97;101074.41;16138403;19;129752;-44
2022/03/29 11:17:08;;;;;;;11.98;9.23;;;;;;;20.21;31.92;101076.00;16141311;19;129719;-43
2022/03/29 11:22:35;;;;;;;12.52;8.60;;;;;;;20.19;31.89;101074.59;16138297;19;128940;-44
2022/03/29 11:28:05;;;;;;;13.98;9.45;;;;;;;20.17;32.18;101060.09;16141049;19;129598;-45
2022/03/29 11:33:34;;;;;;;13.13;9.65;;;;;;;20.16;31.97;101064.84;16137971;19;128907;-44
2022/03/29 11:38:57;;;;;;;13.43;9.73;;;;;;;20.14;32.01;101055.91;16136760;19;129703;-46
2022/03/29 11:44:21;;;;;;;13.73;9.35;;;;;;;20.12;31.91;101053.38;16138848;19;129156;-44
2022/03/29 11:49:45;;;;;;;16.13;11.18;;;;;;;20.12;32.18;101052.53;16139678;19;130828;-46
2022/03/29 11:55:16;;;;;;;12.00;10.35;;;;;;;20.13;31.62;101043.13;16135118;19;128859;-44
2022/03/29 12:00:38;;;;;;;13.93;11.57;;;;;;;20.11;31.72;101043.38;16136384;19;129358;-44
2022/03/29 12:06:08;;;;;;;13.68;11.40;;;;;;;20.12;31.85;101030.31;16139358;19;129070;-47
2022/03/29 12:11:39;;;;;;;15.63;11.45;;;;;;;20.11;31.70;101021.16;16136728;19;128987;-43
2022/03/29 12:17:03;;;;;;;14.38;11.73;;;;;;;20.10;31.64;101013.06;16138080;19;129415;-47
2022/03/29 12:22:27;;;;;;;15.75;11.27;;;;;;;20.09;31.83;101011.38;16137233;19;130663;-46
2022/03/29 12:27:49;;;;;;;16.75;12.25;;;;;;;20.09;31.73;100991.94;16136949;19;130234;-47
2022/03/29 12:33:12;;;;;;;15.70;11.63;;;;;;;20.09;31.82;100984.47;16133386;19;129754;-45
2022/03/29 12:38:41;;;;;;;15.65;12.15;;;;;;;20.09;32.01;100987.25;16135851;19;129081;-46
2022/03/29 12:44:05;;;;;;;18.60;13.60;;;;;;;20.10;31.96;100982.50;16133742;19;129235;-50
2022/03/29 12:49:28;;;;;;;16.85;13.80;;;;;;;20.10;31.96;100974.19;16136187;19;129257;-48
2022/03/29 12:54:58;;;;;;;17.10;13.52;;;;;;;20.10;31.64;100975.03;16147298;19;128886;-46
2022/03/29 13:00:19;;;;;;;17.33;13.63;;;;;;;20.08;31.94;100963.34;16149433;19;129569;-48
2022/03/29 13:05:48;;;;;;;17.52;14.23;;;;;;;20.08;31.91;100945.81;16151227;19;129577;-43
2022/03/29 13:11:18;;;;;;;20.63;14.60;;;;;;;20.07;31.78;100939.44;16146343;19;129572;-46
2022/03/29 13:16:50;;;;;;;19.25;15.18;;;;;;;20.07;31.71;100927.47;16149047;19;130788;-50
2022/03/29 13:22:17;;;;;;;21.60;15.68;;;;;;;20.07;31.60;100922.78;16145040;19;129311;-49
2022/03/29 13:27:39;;;;;;;22.63;18.08;;;;;;;20.06;31.96;100920.25;16149564;19;130139;-47
2022/03/29 13:33:01;;;;;;;28.02;19.33;;;;;;;20.05;31.72;100929.69;16146932;19;129173;-44
2022/03/29 13:38:23;;;;;;;25.85;20.42;;;;;;;20.06;31.83;100921.09;16145532;19;130466;-50
2022/03/29 13:43:50;;;;;;;27.85;20.60;;;;;;;20.04;32.02;100912.16;16145631;19;129163;-45
2022/03/29 13:49:12;;;;;;;27.48;21.02;;;;;;;20.05;31.74;100916.63;16147693;19;130200;-48
2022/03/29 13:54:37;;;;;;;32.97;22.33;;;;;;;20.05;32.00;100899.13;16144400;19;129429;-43
2022/03/29 13:59:59;;;;;;;31.23;22.33;;;;;;;20.05;31.94;100896.38;16142572;19;128913;-46
2022/03/29 14:05:20;;;;;;;29.05;23.20;;;;;;;20.04;31.67;100894.69;16143770;19;129196;-43
2022/03/29 14:10:42;;;;;;;33.97;22.80;;;;;;;20.06;31.85;100890.53;16144396;19;129499;-45
2022/03/29 14:16:05;;;;;;;34.10;24.40;;;;;;;20.04;31.80;100883.56;16137378;19;129641;-47
2022/03/29 14:21:26;;;;;;;31.90;24.02;;;;;;;20.02;31.76;100877.44;16144188;19;129120;-48
2022/03/29 14:26:48;;;;;;;35.75;23.58;;;;;;;20.02;31.68;100871.88;16142156;19;129682;-43
2022/03/29 14:32:10;;;;;;;40.65;24.65;;;;;;;20.02;31.88;100871.88;16141594;19;129606;-48
2022/03/29 14:37:36;;;;;;;33.42;23.92;;;;;;;20.03;31.76;100856.91;16140571;19;130103;-50
2022/03/29 14:42:58;;;;;;;;;;;;;;;19.96;32.16;100860.66;16143131;19;128970;-43
2022/03/29 14:48:20;;;;;;;37.08;24.83;;;;;;;20.01;31.84;100847.97;16140231;19;129625;-46
2022/03/29 14:53:59;;;;;;;33.58;23.75;;;;;;;19.96;31.98;100841.22;16136770;19;129607;-46
2022/03/29 14:59:20;;;;;;;30.48;22.13;;;;;;;19.95;32.11;100833.97;16138749;19;129843;-44
2022/03/29 15:04:42;;;;;;;34.10;22.20;;;;;;;19.96;32.22;100838.44;16140200;19;129298;-43
2022/03/29 15:10:05;;;;;;;28.63;20.70;;;;;;;19.94;31.97;100829.53;16136041;19;129920;-44
2022/03/29 15:15:27;;;;;;;27.08;20.70;;;;;;;19.93;32.46;100832.56;16131487;19;129013;-46
2022/03/29 15:20:49;;;;;;;25.25;18.15;;;;;;;19.92;32.46;100812.31;16132221;19;129219;-50
2022/03/29 15:26:10;;;;;;;26.98;19.15;;;;;;;19.91;32.08;100807.00;16133786;19;130707;-46
2022/03/29 15:31:32;;;;;;;26.60;19.20;;;;;;;19.88;32.41;100797.25;16136126;19;129920;-46
2022/03/29 15:36:54;;;;;;;27.13;18.20;;;;;;;19.91;32.07;100799.53;16133370;19;129395;-47
2022/03/29 15:42:18;;;;;;;23.85;18.02;;;;;;;19.94;32.38;100796.22;16133239;19;130436;-46
2022/03/29 15:47:40;;;;;;;25.80;17.90;;;;;;;19.98;32.12;100788.22;16131435;19;129048;-45
2022/03/29 15:53:06;;;;;;;26.75;18.08;;;;;;;20.00;32.15;100783.25;16135615;19;129836;-43
2022/03/29 15:58:28;;;;;;;27.55;17.20;;;;;;;20.03;32.39;100781.91;16137271;19;129350;-43
2022/03/29 16:04:09;;;;;;;20.83;15.55;;;;;;;20.03;32.07;100779.16;16137544;19;129157;-45
2022/03/29 16:09:33;;;;;;;20.73;14.80;;;;;;;20.02;31.94;100769.13;16136596;19;128956;-46
2022/03/29 16:14:55;;;;;;;20.75;15.07;;;;;;;20.02;32.06;100769.13;16134417;19;129888;-45
2022/03/29 16:20:19;;;;;;;20.40;13.40;;;;;;;20.04;31.89;100762.22;16133538;19;129508;-43
2022/03/29 16:25:43;;;;;;;17.67;12.77;;;;;;;20.05;31.83;100758.34;16139576;19;129384;-46
2022/03/29 16:31:05;;;;;;;18.27;12.80;;;;;;;20.04;31.52;100744.72;16139437;19;131336;-46
2022/03/29 16:36:28;;;;;;;15.50;12.05;;;;;;;20.04;31.74;100745.53;16141067;19;129729;-44
2022/03/29 16:41:50;;;;;;;17.30;11.05;;;;;;;20.12;31.64;100744.25;16147981;19;128933;-46
2022/03/29 16:47:13;;;;;;;16.40;9.93;;;;;;;20.25;31.35;100735.50;16139868;19;131143;-47
2022/03/29 16:52:35;;;;;;;13.25;8.70;;;;;;;20.50;31.26;100730.44;16147062;19;129131;-46
2022/03/29 16:57:57;;;;;;;13.85;8.25;;;;;;;20.77;31.00;100730.44;16147419;19;130636;-48
2022/03/29 17:03:19;;;;;;;11.93;7.53;;;;;;;21.01;30.23;100735.63;16146777;19;129244;-48
2022/03/29 17:08:41;;;;;;;10.73;7.20;;;;;;;21.14;30.38;100740.72;16142900;19;129585;-51
2022/03/29 17:14:08;;;;;;;15.50;7.60;;;;;;;21.26;30.33;100736.91;16144208;19;130815;-44
2022/03/29 17:19:30;;;;;;;14.68;7.40;;;;;;;21.32;30.33;100738.59;16147515;19;129567;-47
2022/03/29 17:24:52;;;;;;;10.95;7.25;;;;;;;21.28;30.23;100731.91;16143154;19;132519;-47
2022/03/29 17:30:14;;;;;;;12.65;6.80;;;;;;;21.20;30.47;100734.06;16136989;19;130092;-47
2022/03/29 17:35:37;;;;;;;9.25;6.88;;;;;;;21.12;30.27;100734.59;16141444;19;129711;-47
2022/03/29 17:41:00;;;;;;;14.15;7.20;;;;;;;21.02;30.57;100732.56;16139388;19;129236;-50
2022/03/29 17:46:21;;;;;;;23.35;7.57;;;;;;;20.89;30.66;100733.88;16140401;19;129446;-48
2022/03/29 17:51:43;;;;;;;13.57;6.85;;;;;;;20.86;31.05;100736.38;16139005;19;130433;-46
2022/03/29 17:57:05;;;;;;;11.32;6.63;;;;;;;21.01;30.79;100730.06;16138476;19;129393;-43
2022/03/29 18:02:27;;;;;;;11.77;6.05;;;;;;;21.28;30.62;100726.34;16142004;19;129136;-44
2022/03/29 18:07:49;;;;;;;12.65;6.03;;;;;;;21.55;30.72;100726.22;16143894;19;129733;-48
2022/03/29 18:13:12;;;;;;;10.93;5.45;;;;;;;21.77;30.42;100730.78;16136998;19;129841;-47
2022/03/29 18:18:34;;;;;;;12.32;5.88;;;;;;;21.85;30.56;100732.19;16143151;19;129505;-46
2022/03/29 18:23:59;;;;;;;16.98;6.95;;;;;;;21.84;30.38;100725.81;16142328;19;129607;-51
2022/03/29 18:29:20;;;;;;;11.97;5.83;;;;;;;21.77;30.65;100726.06;16139788;19;129883;-47
2022/03/29 18:34:45;;;;;;;10.35;5.50;;;;;;;21.67;30.76;100731.56;16139038;19;129869;-48
2022/03/29 18:40:27;;;;;;;8.57;5.57;;;;;;;21.54;31.05;100723.72;16138321;19;128973;-45
2022/03/29 18:45:49;;;;;;;9.05;5.18;;;;;;;21.43;30.94;100739.50;16137272;19;129955;-47
2022/03/29 18:51:11;;;;;;;7.93;5.30;;;;;;;21.33;31.21;100731.94;16141162;19;130307;-45
2022/03/29 18:56:34;;;;;;;9.98;5.50;;;;;;;21.25;31.43;100730.47;16135078;19;129822;-44
2022/03/29 19:02:00;;;;;;;11.80;5.90;;;;;;;21.24;31.38;100725.19;16134670;19;130124;-50
2022/03/29 19:07:22;;;;;;;11.75;5.28;;;;;;;21.34;31.06;100731.69;16138291;19;129157;-48
2022/03/29 19:12:50;;;;;;;9.73;5.03;;;;;;;21.46;31.22;100725.06;16133472;19;129250;-43
2022/03/29 19:18:12;;;;;;;;;;;;;;;21.55;30.98;100731.81;16136897;19;130152;-45
2022/03/29 19:23:34;;;;;;;9.70;5.25;;;;;;;21.66;30.91;100736.31;16138167;19;129535;-44
2022/03/29 19:28:56;;;;;;;9.80;4.95;;;;;;;21.74;30.66;100726.59;16138771;19;129262;-45
2022/03/29 19:34:18;;;;;;;12.82;5.57;;;;;;;21.81;30.58;100723.56;16137668;19;129860;-47
2022/03/29 19:39:53;;;;;;;7.90;5.45;;;;;;;21.87;30.70;100714.09;16137182;19;129567;-46
2022/03/29 19:45:15;;;;;;;11.48;4.90;;;;;;;21.93;30.43;100717.72;16134288;19;129935;-45
2022/03/29 19:50:36;;;;;;;9.05;4.65;;;;;;;22.01;30.52;100720.00;16135180;19;130769;-45
2022/03/29 19:56:20;;;;;;;8.13;4.32;;;;;;;22.07;30.44;100723.63;16132353;19;130319;-47
2022/03/29 20:01:42;;;;;;;7.90;5.35;;;;;;;22.12;30.66;100720.84;16133955;19;129028;-49
2022/03/29 20:07:05;;;;;;;16.02;5.15;;;;;;;22.16;30.64;100715.56;16135813;19;129735;-47
2022/03/29 20:12:28;;;;;;;7.63;4.97;;;;;;;22.16;30.85;100721.13;16134433;19;129310;-48
2022/03/29 20:17:50;;;;;;;9.40;4.55;;;;;;;22.09;30.76;100708.31;16129649;19;129591;-50
2022/03/29 20:23:12;;;;;;;14.35;5.07;;;;;;;22.00;31.00;100711.91;16129086;19;129700;-46
2022/03/29 20:28:35;;;;;;;13.85;5.30;;;;;;;21.87;31.05;100718.84;16129110;19;129535;-49
2022/03/29 20:33:57;;;;;;;17.42;5.50;;;;;;;21.75;31.31;100719.06;16128873;19;129786;-47
2022/03/29 20:39:22;;;;;;;13.18;5.60;;;;;;;21.62;31.14;100706.50;16128403;19;130056;-46
2022/03/29 20:44:45;;;;;;;12.05;5.50;;;;;;;21.49;30.86;100714.25;16126512;19;129205;-47
2022/03/29 20:50:07;;;;;;;13.02;5.95;;;;;;;21.37;31.40;100710.81;16127063;19;128938;-45
2022/03/29 20:55:29;;;;;;;8.68;5.18;;;;;;;21.25;31.56;100713.78;16129113;19;129233;-46
2022/03/29 21:00:51;;;;;;;8.43;4.97;;;;;;;21.15;31.41;100709.03;16125277;19;130386;-46
2022/03/29 21:06:13;;;;;;;9.15;5.22;;;;;;;21.05;31.29;100704.22;16126824;19;129524;-49
2022/03/29 21:11:36;;;;;;;7.57;5.00;;;;;;;20.97;31.49;100709.44;16134586;19;129509;-47
2022/03/29 21:16:58;;;;;;;9.82;5.00;;;;;;;20.87;31.70;100696.31;16144631;19;131352;-46
2022/03/29 21:22:20;;;;;;;8.98;5.35;;;;;;;20.79;31.49;100691.25;16146945;19;130283;-46
2022/03/29 21:27:42;;;;;;;9.05;4.72;;;;;;;20.74;31.69;100697.59;16142619;19;129776;-45
2022/03/29 21:33:04;;;;;;;9.10;5.03;;;;;;;20.67;31.92;100691.44;16145116;19;129386;-47
2022/03/29 21:38:27;;;;;;;9.30;5.15;;;;;;;20.60;31.82;100694.44;16141749;19;130112;-45
2022/03/29 21:43:48;;;;;;;9.10;5.15;;;;;;;20.54;31.89;100682.44;16142715;19;129726;-46
2022/03/29 21:49:10;;;;;;;8.85;5.72;;;;;;;20.48;31.79;100683.47;16139395;19;129701;-47
2022/03/29 21:54:32;;;;;;;8.38;5.10;;;;;;;20.44;31.64;100682.31;16141384;19;129134;-44
2022/03/29 21:59:53;;;;;;;9.13;5.50;;;;;;;20.39;31.94;100676.75;16140581;19;129158;-46
2022/03/29 22:05:15;;;;;;;7.05;4.97;;;;;;;20.36;31.64;100674.47;16139682;19;130711;-47
2022/03/29 22:10:38;;;;;;;7.55;5.45;;;;;;;20.31;31.64;100663.34;16138504;19;129316;-49
2022/03/29 22:15:59;;;;;;;7.35;5.50;;;;;;;20.27;31.80;100663.00;16135424;19;128883;-45
2022/03/29 22:21:26;;;;;;;7.47;5.30;;;;;;;20.23;31.71;100656.31;16141066;19;130308;-45
2022/03/29 22:26:48;;;;;;;7.28;5.50;;;;;;;20.21;31.86;100652.97;16138541;19;130896;-44
2022/03/29 22:32:10;;;;;;;9.60;6.32;;;;;;;20.17;31.68;100649.88;16141111;19;130776;-46
2022/03/29 22:37:32;;;;;;;8.07;6.30;;;;;;;20.13;31.68;100657.88;16131695;19;129632;-47
2022/03/29 22:42:55;;;;;;;9.57;6.60;;;;;;;20.11;31.97;100662.88;16137827;19;129349;-46
2022/03/29 22:48:17;;;;;;;8.93;6.28;;;;;;;20.07;31.67;100645.06;16135597;19;130401;-47
2022/03/29 22:53:39;;;;;;;9.98;6.60;;;;;;;20.05;31.67;100646.44;16137829;19;129476;-46
2022/03/29 22:59:01;;;;;;;7.68;6.53;;;;;;;20.03;31.89;100643.91;16132142;19;130034;-50
2022/03/29 23:04:23;;;;;;;9.90;6.68;;;;;;;19.99;31.41;100643.59;16134533;19;130844;-49
2022/03/29 23:09:45;;;;;;;9.18;6.82;;;;;;;19.97;31.81;100644.94;16136184;19;129954;-45
2022/03/29 23:15:07;;;;;;;8.65;6.70;;;;;;;19.93;31.57;100639.06;16135307;19;129468;-46
2022/03/29 23:20:29;;;;;;;9.85;7.20;;;;;;;19.92;31.84;100637.41;16135428;19;130177;-45
2022/03/29 23:25:51;;;;;;;8.05;7.10;;;;;;;19.89;31.65;100637.91;16136588;19;130106;-49
2022/03/29 23:31:13;;;;;;;7.75;6.80;;;;;;;19.87;31.39;100633.72;16135634;19;131079;-45
2022/03/29 23:36:35;;;;;;;9.15;6.60;;;;;;;19.85;31.37;100633.97;16131236;19;129093;-45
2022/03/29 23:41:57;;;;;;;7.85;6.32;;;;;;;19.82;31.87;100627.00;16131952;19;129449;-46
2022/03/29 23:47:18;;;;;;;8.82;5.90;;;;;;;19.80;31.49;100636.72;16129943;19;129513;-47
2022/03/29 23:52:40;;;;;;;9.30;6.38;;;;;;;19.79;31.64;100626.72;16133037;19;129969;-45
2022/03/29 23:58:02;;;;;;;6.85;6.05;;;;;;;19.77;31.56;100640.00;16129801;19;130421;-49
